Latest Weather Observations for Cleve Airport

IDS60801

Issued at 8:11 pm CDT Thursday 21 February 2019 (issued every 10 minutes, with the page automatically refreshed every 10 minutes)

About weather observations | Map of weather stations | Latest weather observations for SA | Other Formats
Station Details ID: 018116 Name: CLEVE AERODROME Lat: -33.71 Lon: 136.50 Height: 175.0 m
Data from the previous 72 hours. | See also: Recent months at Cleve Airport
Date/Time
CDT
Temp
°C
App
Temp
°C
Dew
Point
°C
Rel
Hum
%
Delta-T
°C
Wind Press
QNH
hPa
Press
MSL
hPa
Rain since
9am
mm
Dir  Spd
km/h
Gust
km/h
Spd
kts
Gust
kts
21/08:00pm 19.3 15.9 13.7 70 3.2 SE 24 32 13 17 1019.9 1019.2 0.0
21/07:30pm 20.2 16.0 13.6 66 3.8 SE 28 35 15 19 1019.9 1019.2 0.0
21/07:00pm 21.1 16.8 13.3 61 4.5 SE 28 37 15 20 1019.8 1019.1 0.0
21/06:30pm 21.5 17.4 13.7 61 4.5 SE 28 37 15 20 1019.6 1018.9 0.0
21/06:00pm 22.0 17.8 13.4 58 5.0 SE 28 39 15 21 1019.3 1018.6 0.0
21/05:30pm 22.6 18.1 12.5 53 5.8 ESE 28 35 15 19 1019.2 1018.5 0.0
21/05:00pm 23.0 18.3 12.0 50 6.3 SE 28 37 15 20 1019.2 1018.5 0.0
21/04:30pm 23.4 19.2 12.4 50 6.3 ESE 26 35 14 19 1019.2 1018.5 0.0
21/04:00pm 23.9 19.8 11.6 46 7.0 ESE 24 35 13 19 1019.1 1018.4 0.0
21/03:30pm 23.7 19.5 11.1 45 7.1 SE 24 32 13 17 1019.5 1018.8 0.0
21/03:00pm 23.6 19.6 10.6 44 7.2 ESE 22 33 12 18 1020.0 1019.3 0.0
21/02:30pm 23.6 20.2 11.3 46 6.9 ESE 20 32 11 17 1020.3 1019.6 0.0
21/02:00pm 23.4 19.6 12.4 50 6.3 ESE 24 35 13 19 1020.5 1019.8 0.0
21/01:30pm 22.6 19.4 12.0 51 6.0 ESE 20 32 11 17 1020.8 1020.1 0.0
21/01:00pm 22.3 18.7 12.0 52 5.8 E 22 35 12 19 1021.1 1020.4 0.0
21/12:30pm 23.0 18.9 12.6 52 6.0 ESE 26 37 14 20 1021.2 1020.5 0.0
21/12:00pm 22.7 19.1 12.9 54 5.6 ESE 24 35 13 19 1021.4 1020.7 0.0
21/11:30am 21.6 17.4 12.5 56 5.2 ESE 26 35 14 19 1021.4 1020.7 0.0
21/11:00am 20.5 17.4 13.5 64 4.0 ESE 22 32 12 17 1021.6 1020.9 0.0
21/10:30am 19.2 15.6 14.2 73 2.9 ESE 26 33 14 18 1021.7 1021.0 0.0
21/10:00am 19.5 15.9 13.2 67 3.6 ESE 24 33 13 18 1021.3 1020.6 0.0
21/09:30am 19.6 15.1 12.6 64 4.0 E 28 35 15 19 1021.0 1020.3 0.0
21/09:00am 18.7 14.3 12.9 69 3.3 E 28 35 15 19 1020.7 1020.0 0.0
21/08:30am 18.3 14.5 12.5 69 3.2 E 24 33 13 18 1020.4 1019.7 0.0
21/08:00am 17.9 14.2 12.8 72 2.9 E 24 32 13 17 1020.2 1019.5 0.0
21/07:30am 17.7 14.6 13.4 76 2.4 E 22 28 12 15 1020.0 1019.3 0.0
21/07:00am 17.7 14.7 12.6 72 2.9 E 20 30 11 16 1019.6 1018.9 0.0
21/06:30am 17.6 14.7 12.9 74 2.6 E 20 24 11 13 1019.3 1018.6 0.0
21/06:00am 17.5 15.4 13.6 78 2.2 ESE 17 22 9 12 1019.0 1018.2 0.0
21/05:30am 17.4 15.0 13.9 80 2.0 ESE 19 24 10 13 1019.1 1018.4 0.0
21/05:00am 17.5 14.9 13.8 79 2.1 ESE 20 24 11 13 1019.1 1018.4 0.0
21/04:30am 17.7 15.4 14.0 79 2.1 ESE 19 24 10 13 1019.2 1018.5 0.0
21/04:00am 17.5 15.5 13.8 79 2.1 ESE 17 22 9 12 1019.0 1018.2 0.0
21/03:30am 17.5 15.1 13.8 79 2.1 ESE 19 24 10 13 1019.1 1018.4 0.0
21/03:00am 17.9 15.4 14.2 79 2.1 ESE 20 24 11 13 1019.3 1018.6 0.0
21/02:30am 17.7 15.4 14.0 79 2.1 SE 19 24 10 13 1019.4 1018.7 0.0
21/02:00am 17.6 15.2 13.9 79 2.1 SE 19 24 10 13 1019.6 1018.9 0.0
21/01:30am 17.3 14.8 13.6 79 2.1 SE 19 24 10 13 1019.9 1019.2 0.0
21/01:00am 17.6 14.3 14.1 80 2.0 SE 24 30 13 16 1019.8 1019.1 0.0
21/12:30am 17.3 14.7 13.8 80 2.0 SE 20 26 11 14 1019.7 1019.0 0.0
21/12:00am 17.2 15.0 13.3 78 2.2 SSE 17 22 9 12 1019.8 1019.1 0.0
 
Date/Time
CDT
Temp
°C
App
Temp
°C
Dew
Point
°C
Rel
Hum
%
Delta-T
°C
Wind Press
QNH
hPa
Press
MSL
hPa
Rain since
9am
mm
Dir  Spd
km/h
Gust
km/h
Spd
kts
Gust
kts
20/11:30pm 17.1 14.4 13.0 77 2.3 SSE 19 24 10 13 1020.1 1019.4 0.0
20/11:00pm 16.6 15.8 12.8 78 2.1 SSE 9 13 5 7 1020.4 1019.7 0.0
20/10:30pm 16.5 15.6 12.5 77 2.2 SSE 9 11 5 6 1020.4 1019.7 0.0
20/10:00pm 16.6 16.0 12.2 75 2.4 SSE 7 11 4 6 1020.3 1019.6 0.0
20/09:30pm 17.0 15.6 12.3 74 2.6 SSE 11 15 6 8 1020.0 1019.3 0.0
20/09:00pm 17.4 15.3 12.3 72 2.8 SSE 15 20 8 11 1019.7 1019.0 0.0
20/08:30pm 17.8 15.0 12.5 71 3.0 SSE 19 26 10 14 1019.4 1018.7 0.0
20/08:00pm 18.5 15.5 12.5 68 3.4 SE 20 28 11 15 1019.1 1018.4 0.0
20/07:30pm 19.1 15.0 12.6 66 3.7 SE 26 35 14 19 1018.8 1018.0 0.0
20/07:00pm 20.1 15.8 12.1 60 4.5 SE 26 33 14 18 1018.7 1017.9 0.0
20/06:30pm 20.7 16.2 11.3 55 5.2 SSE 26 35 14 19 1018.6 1017.8 0.0
20/06:00pm 21.0 16.7 10.8 52 5.6 SE 24 33 13 18 1018.5 1017.7 0.0
20/05:30pm 21.3 16.5 10.2 49 6.1 SE 26 37 14 20 1018.2 1017.4 0.0
20/05:00pm 21.8 17.3 11.5 52 5.8 SE 26 37 14 20 1018.1 1017.3 0.0
20/04:30pm 21.8 17.6 11.2 51 5.9 SE 24 35 13 19 1018.1 1017.3 0.0
20/04:00pm 22.0 16.7 11.1 50 6.1 SE 30 41 16 22 1018.2 1017.4 0.0
20/03:30pm 22.1 17.4 10.6 48 6.3 SSE 26 35 14 19 1018.4 1017.6 0.0
20/03:00pm 23.6 19.2 10.3 43 7.4 SSE 24 37 13 20 1018.5 1017.7 0.0
20/02:30pm 22.6 18.8 9.7 44 7.0 SSE 20 28 11 15 1018.7 1017.9 0.0
20/02:00pm 22.3 19.5 10.1 46 6.7 SSE 15 24 8 13 1018.9 1018.1 0.0
20/01:30pm 21.6 17.8 9.8 47 6.4 SE 20 32 11 17 1019.0 1018.2 0.0
20/01:00pm 21.5 17.8 10.0 48 6.3 SSE 20 32 11 17 1019.2 1018.5 0.0
20/12:30pm 21.6 18.9 10.4 49 6.1 SSE 15 24 8 13 1019.4 1018.7 0.0
20/12:00pm 21.3 18.5 9.9 48 6.2 SE 15 24 8 13 1019.6 1018.9 0.0
20/11:30am 20.7 19.1 10.2 51 5.7 E 9 22 5 12 1019.7 1019.0 0.0
20/11:00am 19.8 17.2 10.8 56 4.9 S 15 20 8 11 1019.8 1019.1 0.0
20/10:30am 18.8 16.4 10.1 57 4.7 SE 13 20 7 11 1019.7 1019.0 0.0
20/10:00am 17.7 14.7 10.6 63 3.8 SSE 17 24 9 13 1019.6 1018.9 0.0
20/09:30am 17.6 15.3 11.6 68 3.3 SSW 15 19 8 10 1019.5 1018.8 0.0
20/09:00am 16.6 14.2 11.5 72 2.8 SW 15 19 8 10 1019.4 1018.7 0.0
20/08:30am 15.6 13.4 12.0 79 2.0 SW 15 19 8 10 1019.0 1018.2 0.0
20/08:00am 14.4 12.5 11.9 85 1.4 W 13 15 7 8 1018.8 1018.0 0.0
20/07:30am 13.3 11.3 11.4 88 1.0 W 13 15 7 8 1018.4 1017.6 0.0
20/07:00am 13.0 10.9 11.1 88 1.0 WSW 13 17 7 9 1018.2 1017.4 0.0
20/06:30am 13.0 10.5 10.9 87 1.1 W 15 17 8 9 1017.8 1017.1 0.0
20/06:00am 12.9 10.6 10.6 86 1.2 W 13 15 7 8 1017.7 1017.0 0.0
20/05:30am 12.8 10.5 10.3 85 1.3 WSW 13 15 7 8 1017.7 1017.0 0.0
20/05:00am 13.0 10.3 10.2 83 1.5 WSW 15 17 8 9 1017.6 1016.9 0.0
20/04:30am 13.0 10.2 10.0 82 1.6 WSW 15 17 8 9 1017.8 1017.1 0.0
20/04:00am 12.9 10.0 9.5 80 1.7 WSW 15 17 8 9 1017.7 1017.0 0.0
20/03:30am 12.9 10.4 9.7 81 1.6 WSW 13 15 7 8 1017.6 1016.9 0.0
20/03:00am 13.2 10.7 9.6 79 1.9 WSW 13 15 7 8 1017.7 1017.0 0.0
20/02:30am 13.4 10.9 9.6 78 2.0 WSW 13 15 7 8 1017.8 1017.1 0.0
20/02:00am 13.8 11.2 9.5 75 2.2 SW 13 15 7 8 1018.2 1017.4 0.0
20/01:30am 14.9 12.5 10.1 73 2.5 SW 13 19 7 10 1018.3 1017.5 0.0
20/01:00am 15.0 13.1 10.6 75 2.3 SW 11 15 6 8 1018.3 1017.5 0.0
20/12:30am 14.8 13.7 10.8 77 2.1 S 7 11 4 6 1018.2 1017.4 0.0
20/12:00am 15.3 13.5 10.9 75 2.4 S 11 13 6 7 1018.2 1017.4 0.0
 
Date/Time
CDT
Temp
°C
App
Temp
°C
Dew
Point
°C
Rel
Hum
%
Delta-T
°C
Wind Press
QNH
hPa
Press
MSL
hPa
Rain since
9am
mm
Dir  Spd
km/h
Gust
km/h
Spd
kts
Gust
kts
19/11:30pm 15.5 13.4 11.1 75 2.4 S 13 15 7 8 1018.4 1017.6 0.0
19/11:00pm 15.7 13.9 10.9 73 2.6 S 11 13 6 7 1018.4 1017.6 0.0
19/10:30pm 15.9 13.7 10.9 72 2.7 S 13 15 7 8 1018.4 1017.6 0.0
19/10:00pm 16.3 13.7 10.8 70 3.0 S 15 19 8 10 1018.1 1017.3 0.0
19/09:30pm 16.7 14.6 11.0 69 3.1 S 13 15 7 8 1017.9 1017.2 0.0
19/09:00pm 17.1 14.3 11.2 68 3.2 SSE 17 20 9 11 1017.7 1017.0 0.0
19/08:30pm 17.5 14.2 10.9 65 3.6 SSE 19 24 10 13 1017.4 1016.7 0.0
19/08:00pm 18.3 14.2 10.2 59 4.4 SSE 22 28 12 15 1017.0 1016.3 0.0
19/07:30pm 19.5 15.3 9.7 53 5.3 SSE 22 30 12 16 1016.9 1016.2 0.0
19/07:00pm 19.9 15.3 9.5 51 5.6 SSE 24 35 13 19 1016.7 1016.0 0.0
19/06:30pm 20.6 15.9 9.2 48 6.1 SE 24 33 13 18 1016.5 1015.8 0.0
19/06:00pm 21.5 16.4 9.1 45 6.6 SSE 26 33 14 18 1016.1 1015.4 0.0
19/05:30pm 21.7 17.1 8.2 42 7.1 SSE 22 32 12 17 1015.9 1015.2 0.0
19/05:00pm 21.9 17.7 8.1 41 7.3 SE 20 30 11 16 1015.8 1015.1 0.0
19/04:30pm 21.6 16.9 7.8 41 7.2 SE 22 30 12 16 1015.8 1015.1 0.0
19/04:00pm 21.8 16.4 8.0 41 7.3 SSE 26 35 14 19 1015.7 1015.0 0.0
19/03:30pm 22.0 17.0 8.2 41 7.3 SSE 24 33 13 18 1016.0 1015.3 0.0
19/03:00pm 23.1 19.2 8.8 40 7.7 SE 19 32 10 17 1016.2 1015.5 0.0
19/02:30pm 22.5 18.4 8.6 41 7.4 SE 20 35 11 19 1016.2 1015.5 0.0
19/02:00pm 21.9 16.7 7.3 39 7.6 SSE 24 33 13 18 1016.5 1015.8 0.0
19/01:30pm 21.9 17.7 8.1 41 7.3 SSE 20 33 11 18 1016.7 1016.0 0.0
19/01:00pm 22.1 17.8 7.9 40 7.5 S 20 35 11 19 1016.7 1016.0 0.0
19/12:30pm 21.5 18.0 7.3 40 7.4 SE 15 24 8 13 1017.1 1016.4 0.0
19/12:00pm 21.0 17.5 7.3 41 7.1 S 15 24 8 13 1017.4 1016.7 0.0
19/11:30am 20.6 16.7 7.2 42 6.9 SE 17 30 9 16 1017.3 1016.6 0.0
19/11:00am 19.7 15.5 7.4 45 6.3 S 19 30 10 16 1017.6 1016.9 0.0
19/10:30am 19.1 15.5 8.4 50 5.6 S 17 26 9 14 1017.5 1016.8 0.0
19/10:00am 18.5 13.9 8.2 51 5.3 S 22 28 12 15 1017.3 1016.6 0.0
19/09:30am 18.2 14.4 9.0 55 4.8 S 19 26 10 14 1017.2 1016.5 0.0
19/09:00am 17.5 14.1 9.2 58 4.4 SSW 17 24 9 13 1017.0 1016.3 0.0
19/08:30am 16.5 12.7 9.2 62 3.8 SSW 19 24 10 13 1016.7 1016.0 0.0
19/08:00am 15.8 12.7 8.8 63 3.6 SW 15 20 8 11 1016.4 1015.7 0.0
19/07:30am 15.2 12.4 8.7 65 3.3 SW 13 17 7 9 1016.0 1015.3 0.0
19/07:00am 15.4 12.7 8.9 65 3.3 SW 13 19 7 10 1015.7 1015.0 0.0
19/06:30am 15.6 13.2 8.8 64 3.5 SW 11 19 6 10 1015.6 1014.9 0.0
19/06:00am 15.4 13.1 8.9 65 3.3 SW 11 15 6 8 1015.5 1014.8 0.0
19/05:30am 15.5 13.3 9.2 66 3.3 SW 11 17 6 9 1015.5 1014.8 0.0
19/05:00am 15.3 12.7 9.2 67 3.2 SW 13 17 7 9 1015.5 1014.8 0.0
19/04:30am 15.3 12.7 9.2 67 3.2 SSW 13 17 7 9 1015.6 1014.9 0.0
19/04:00am 15.4 12.8 9.3 67 3.2 WSW 13 17 7 9 1015.4 1014.7 0.0
19/03:30am 15.4 12.8 9.5 68 3.1 WSW 13 17 7 9 1015.4 1014.7 0.0
19/03:00am 15.0 12.9 9.6 70 2.8 WSW 11 13 6 7 1015.6 1014.9 0.0
19/02:30am 14.4 12.3 9.6 73 2.5 WSW 11 13 6 7 1015.8 1015.1 0.0
19/02:00am 14.8 12.3 9.8 72 2.6 SW 13 15 7 8 1016.0 1015.3 0.0
19/01:30am 14.9 13.2 9.9 72 2.6 WSW 9 11 5 6 1016.3 1015.6 0.0
19/01:00am 14.0 11.5 9.6 75 2.3 SW 13 15 7 8 1016.4 1015.7 0.0
19/12:30am 14.2 12.1 9.6 74 2.4 SW 11 13 6 7 1016.3 1015.6 0.0
19/12:00am 14.7 12.7 10.3 75 2.3 SW 11 15 6 8 1016.3 1015.6 0.0
 
Date/Time
CDT
Temp
°C
App
Temp
°C
Dew
Point
°C
Rel
Hum
%
Delta-T
°C
Wind Press
QNH
hPa
Press
MSL
hPa
Rain since
9am
mm
Dir  Spd
km/h
Gust
km/h
Spd
kts
Gust
kts
18/11:30pm 15.2 13.8 10.8 75 2.3 SSW 9 13 5 7 1016.4 1015.7 0.0
18/11:00pm 15.2 13.3 10.4 73 2.5 SSW 11 13 6 7 1016.5 1015.8 0.0
18/10:30pm 15.4 13.0 10.2 71 2.7 S 13 17 7 9 1016.3 1015.6 0.0
18/10:00pm 15.5 13.2 10.5 72 2.7 S 13 17 7 9 1016.1 1015.4 0.0
18/09:30pm 16.1 13.1 10.6 70 2.9 SSE 17 20 9 11 1015.8 1015.1 0.0
18/09:00pm 16.5 12.6 10.8 69 3.1 S 22 28 12 15 1015.5 1014.8 0.0
18/08:30pm 16.8 12.8 10.6 67 3.3 SSE 22 30 12 16 1015.1 1014.4 0.0

Other formats

Comma delimited format used in spreadsheet applications
http://www.bom.gov.au/fwo/IDS60801/IDS60801.94662.axf

JavaScript Object Notation format (JSON) in row-major order
http://www.bom.gov.au/fwo/IDS60801/IDS60801.94662.json

Data quality

Most of these data are generated automatically and are frequently updated. Quality checks on data are not normally performed. It is possible for incorrect values to appear. Refer to information at About Latest Weather Observations and please check the disclaimer before using these data.